Time;durP1;ratioP1;P1;durP2;ratioP2;P2;SDS_P1;SDS_P2;PMS_P1;PMS_P2;Temp;Humidity;BMP_temperature;BMP_pressure;BME280_temperature;BME280_humidity;BME280_pressure;Samples;Min_cycle;Max_cycle;Signal;HPM_P1;HPM_P2
2022/01/25 00:26:16;;;;;;;300.40;73.87;;;;;;;-0.78;100.00;101378.16;4186268;28;20233;-64
2022/01/25 00:31:28;;;;;;;292.13;73.37;;;;;;;-0.79;100.00;101369.47;4173387;28;21801;-66
2022/01/25 00:33:55;;;;;;;294.80;72.30;;;;;;;-0.78;100.00;101372.94;4171089;28;21119;-66
2022/01/25 00:36:24;;;;;;;279.70;74.87;;;;;;;-0.75;100.00;101365.84;4182245;28;20725;-64
2022/01/25 00:38:53;;;;;;;308.03;74.10;;;;;;;-0.77;100.00;101361.56;4176525;28;20236;-66
2022/01/25 00:41:21;;;;;;;305.57;73.63;;;;;;;-0.74;100.00;101354.47;4164287;28;20237;-65
2022/01/25 00:43:47;;;;;;;284.60;76.50;;;;;;;-0.74;100.00;101351.03;4191745;28;20308;-67
2022/01/25 00:46:15;;;;;;;306.67;75.20;;;;;;;-0.75;100.00;101346.69;4180924;28;20305;-66
2022/01/25 00:48:45;;;;;;;297.30;72.73;;;;;;;-0.71;100.00;101348.28;4173486;28;20284;-64
2022/01/25 00:56:31;;;;;;;297.90;70.87;;;;;;;-0.75;100.00;101351.91;4174085;28;20633;-65
2022/01/25 00:58:59;;;;;;;287.80;70.37;;;;;;;-0.74;100.00;101344.03;4161187;28;20237;-66
2022/01/25 01:01:27;;;;;;;298.33;72.57;;;;;;;-0.69;100.00;101339.50;4165517;28;20257;-66
2022/01/25 01:03:54;;;;;;;311.93;72.47;;;;;;;-0.70;100.00;101340.41;4158493;28;20225;-65
2022/01/25 01:06:20;;;;;;;315.17;72.03;;;;;;;-0.70;100.00;101335.19;4185774;28;20721;-64
2022/01/25 01:08:47;;;;;;;300.77;70.77;;;;;;;-0.70;100.00;101334.34;4173850;28;20237;-64
2022/01/25 01:11:20;;;;;;;293.30;68.60;;;;;;;-0.67;100.00;101337.69;4165789;28;20233;-66
2022/01/25 01:38:14;;;;;;;328.60;67.30;;;;;;;-0.58;100.00;101317.41;4174199;28;20363;-64
2022/01/25 01:43:28;;;;;;;354.33;70.60;;;;;;;-0.54;100.00;101304.16;4180472;28;20441;-68
2022/01/25 01:48:51;;;;;;;389.80;71.77;;;;;;;-0.60;100.00;101295.69;4163871;28;22903;-63
2022/01/25 01:51:29;;;;;;;370.13;68.17;;;;;;;-0.55;100.00;101297.22;4173170;28;20251;-64
2022/01/25 01:53:59;;;;;;;442.77;74.47;;;;;;;-0.58;100.00;101302.56;4175690;28;20232;-66
2022/01/25 01:56:26;;;;;;;404.37;71.33;;;;;;;-0.55;100.00;101297.22;4169216;28;21228;-67
2022/01/25 01:58:54;;;;;;;460.63;74.83;;;;;;;-0.58;100.00;101280.81;4177427;28;20237;-67
2022/01/25 02:01:24;;;;;;;447.97;75.00;;;;;;;-0.54;100.00;101287.59;4173525;28;21220;-66
2022/01/25 02:03:52;;;;;;;361.13;67.30;;;;;;;-0.54;100.00;101282.38;4167336;28;20229;-65
2022/01/25 02:06:19;;;;;;;387.43;68.63;;;;;;;-0.46;100.00;101278.59;4174481;28;25859;-66
2022/01/25 02:08:45;;;;;;;426.93;74.33;;;;;;;-0.53;100.00;101284.94;4173834;28;20234;-66
2022/01/25 02:11:12;;;;;;;414.40;69.23;;;;;;;-0.56;100.00;101285.06;4164448;28;20246;-64
2022/01/25 02:13:41;;;;;;;419.13;69.90;;;;;;;-0.59;100.00;101279.91;4162793;28;21650;-67
2022/01/25 02:16:15;;;;;;;436.63;70.97;;;;;;;-0.58;100.00;101276.41;4175754;28;20380;-66
2022/01/25 02:24:12;;;;;;;306.83;59.37;;;;;;;-0.56;100.00;101274.59;4173824;28;20325;-66
2022/01/25 02:26:38;;;;;;;331.67;64.77;;;;;;;-0.60;100.00;101273.00;4170612;28;20249;-63
2022/01/25 02:29:05;;;;;;;300.27;57.87;;;;;;;-0.59;100.00;101268.63;4169030;28;20647;-66
2022/01/25 02:31:32;;;;;;;317.67;62.17;;;;;;;-0.64;100.00;101266.16;4148960;28;20303;-66
2022/01/25 02:33:58;;;;;;;325.60;58.40;;;;;;;-0.65;100.00;101254.00;4170979;28;20670;-64
2022/01/25 02:36:27;;;;;;;330.70;60.67;;;;;;;-0.64;100.00;101250.47;4162804;28;20233;-67
2022/01/25 02:38:55;;;;;;;371.83;62.97;;;;;;;-0.66;100.00;101237.50;4175719;28;20263;-63
2022/01/25 02:41:23;;;;;;;311.93;59.33;;;;;;;-0.67;100.00;101242.75;4163156;28;20229;-66
2022/01/25 02:43:50;;;;;;;286.33;57.50;;;;;;;-0.65;100.00;101252.25;4176668;28;22248;-65
2022/01/25 02:48:29;;;;;;;308.83;59.03;;;;;;;-0.67;100.00;101253.22;4165538;28;20241;-66
2022/01/25 02:49:08;;;;;;;288.20;57.60;;;;;;;-0.68;100.00;101244.53;4190763;28;20236;-66
2022/01/25 02:51:41;;;;;;;277.07;56.77;;;;;;;-0.68;100.00;101244.53;4175757;28;20231;-66
2022/01/25 02:54:09;;;;;;;267.53;53.20;;;;;;;-0.71;100.00;101249.84;4175685;28;20245;-67
2022/01/25 02:56:36;;;;;;;267.07;53.83;;;;;;;-0.70;100.00;101246.34;4175257;28;20349;-66
2022/01/25 02:59:05;;;;;;;260.40;54.43;;;;;;;-0.66;100.00;101249.69;4171674;28;20285;-63
2022/01/25 03:01:33;;;;;;;265.53;56.00;;;;;;;-0.65;100.00;101243.56;4159030;28;20225;-65
2022/01/25 03:04:00;;;;;;;262.13;52.37;;;;;;;-0.50;100.00;101243.00;4180220;28;20248;-65
2022/01/25 03:06:27;;;;;;;277.20;52.90;;;;;;;-0.53;100.00;101243.13;4164545;28;20296;-65
2022/01/25 03:08:54;;;;;;;250.27;52.60;;;;;;;-0.59;100.00;101238.09;4172957;28;21471;-64
2022/01/25 03:11:23;;;;;;;280.33;53.17;;;;;;;-0.53;100.00;101244.88;4161940;28;20295;-65
2022/01/25 03:13:52;;;;;;;281.43;54.37;;;;;;;-0.54;100.00;101238.81;4171679;28;20242;-64
2022/01/25 03:19:01;;;;;;;278.17;51.67;;;;;;;-0.53;100.00;101222.22;4174383;28;20250;-65
2022/01/25 03:23:55;;;;;;;238.03;48.53;;;;;;;-0.46;100.00;101208.00;4184531;28;22980;-65
2022/01/25 03:26:23;;;;;;;234.23;49.10;;;;;;;-0.46;100.00;101213.25;4174526;28;20241;-65
2022/01/25 03:28:50;;;;;;;206.03;46.83;;;;;;;-0.39;100.00;101213.03;4192143;28;20241;-66
2022/01/25 03:31:17;;;;;;;216.03;47.43;;;;;;;-0.39;100.00;101202.56;4172918;28;20389;-66
2022/01/25 03:33:43;;;;;;;232.23;49.13;;;;;;;-0.38;100.00;101204.25;4179460;28;21258;-65
2022/01/25 03:36:10;;;;;;;215.83;48.03;;;;;;;-0.40;100.00;101190.38;4184393;28;20374;-65
2022/01/25 03:38:38;;;;;;;276.77;50.57;;;;;;;-0.46;100.00;101192.31;4175718;28;20341;-65
2022/01/25 03:41:07;;;;;;;258.60;51.07;;;;;;;-0.43;100.00;101205.28;4180014;28;20245;-65
2022/01/25 03:43:35;;;;;;;281.97;48.17;;;;;;;-0.41;100.00;101193.91;4169943;28;20336;-66
2022/01/25 03:46:13;;;;;;;247.30;47.70;;;;;;;-0.43;100.00;101197.44;4173218;28;21606;-66
2022/01/25 03:51:25;;;;;;;280.97;48.33;;;;;;;-0.48;100.00;101203.75;4168153;28;20238;-66
2022/01/25 03:53:53;;;;;;;255.83;44.93;;;;;;;-0.47;100.00;101198.47;4187750;28;20252;-65
2022/01/25 03:56:21;;;;;;;237.27;46.67;;;;;;;-0.43;100.00;101196.59;4175247;28;20888;-66
2022/01/25 03:58:48;;;;;;;183.60;42.33;;;;;;;-0.40;100.00;101186.00;4166176;28;20233;-66
2022/01/25 04:01:16;;;;;;;221.03;44.53;;;;;;;-0.36;100.00;101177.16;4182997;28;20233;-64
2022/01/25 04:03:46;;;;;;;280.90;47.40;;;;;;;-0.49;100.00;101175.91;4158262;28;23871;-65
2022/01/25 04:06:18;;;;;;;260.47;44.93;;;;;;;-0.48;100.00;101186.28;4227091;28;20237;-65
2022/01/25 04:08:45;;;;;;;267.87;45.80;;;;;;;-0.40;100.00;101177.31;4228105;28;20231;-65
2022/01/25 04:11:11;;;;;;;259.73;45.70;;;;;;;-0.40;100.00;101175.53;4185058;28;20282;-67
2022/01/25 04:13:39;;;;;;;200.97;41.23;;;;;;;-0.41;100.00;101171.25;4188001;28;20925;-63
2022/01/25 04:16:14;;;;;;;191.30;40.13;;;;;;;-0.43;100.00;101171.28;4193846;28;20254;-51
2022/01/25 04:19:27;;;;;;;233.07;41.50;;;;;;;-0.48;100.00;101152.31;4184378;28;20229;-66
2022/01/25 04:26:48;;;;;;;202.53;41.37;;;;;;;-0.55;100.00;101132.53;4184851;28;25255;-67
2022/01/25 04:29:20;;;;;;;199.97;39.77;;;;;;;-0.57;100.00;101129.13;4179850;28;20706;-66
2022/01/25 04:31:46;;;;;;;208.50;41.47;;;;;;;-0.56;100.00;101125.59;4208377;28;20300;-69
2022/01/25 04:50:35;;;;;;;183.53;40.63;;;;;;;-0.45;100.00;101118.19;4173330;28;23411;-66
2022/01/25 04:53:11;;;;;;;184.30;39.93;;;;;;;-0.47;100.00;101117.44;4171520;28;20308;-68
2022/01/25 04:55:49;;;;;;;176.53;38.37;;;;;;;-0.41;100.00;101118.09;4166150;28;20276;-68
2022/01/25 04:58:24;;;;;;;173.70;38.83;;;;;;;-0.39;100.00;101114.50;4175385;28;20245;-67
2022/01/25 05:00:51;;;;;;;191.73;37.93;;;;;;;-0.38;100.00;101103.13;4175716;28;21662;-70
2022/01/25 05:03:25;;;;;;;161.63;35.90;;;;;;;-0.36;100.00;101100.47;4167223;28;21593;-70
2022/01/25 05:06:08;;;;;;;198.77;39.70;;;;;;;-0.33;100.00;101111.69;4201775;28;20295;-68
2022/01/25 05:08:46;;;;;;;172.30;38.33;;;;;;;-0.25;100.00;101111.38;4166998;28;20693;-67
2022/01/25 05:11:34;;;;;;;177.87;37.90;;;;;;;-0.37;100.00;101101.38;4172750;28;21695;-69
2022/01/25 05:24:41;;;;;;;194.00;40.87;;;;;;;-0.37;100.00;101112.69;4161478;28;20276;-69
2022/01/25 05:27:09;;;;;;;191.57;40.13;;;;;;;-0.36;100.00;101105.69;4170672;28;20398;-67
2022/01/25 05:29:36;;;;;;;175.70;37.33;;;;;;;-0.31;100.00;101096.75;4174822;28;20655;-67
2022/01/25 05:32:03;;;;;;;207.43;41.03;;;;;;;-0.29;100.00;101105.41;4173555;28;20344;-68
2022/01/25 05:34:31;;;;;;;167.07;37.47;;;;;;;-0.23;100.00;101094.72;4169934;28;20731;-68
2022/01/25 05:36:58;;;;;;;177.50;38.20;;;;;;;-0.23;100.00;101089.47;4168415;28;20252;-68
2022/01/25 05:39:29;;;;;;;191.17;39.97;;;;;;;-0.30;100.00;101088.00;4173761;28;21904;-68
2022/01/25 05:41:57;;;;;;;190.63;40.13;;;;;;;-0.25;100.00;101095.69;4182678;28;20957;-67
2022/01/25 05:47:14;;;;;;;190.67;39.70;;;;;;;-0.22;100.00;101090.31;4166708;28;20233;-68
2022/01/25 05:49:46;;;;;;;225.90;44.00;;;;;;;-0.26;100.00;101099.19;4156831;28;20234;-68
2022/01/25 05:52:13;;;;;;;205.17;40.93;;;;;;;-0.18;100.00;101101.53;4169329;28;22022;-69
2022/01/25 05:54:39;;;;;;;210.43;43.30;;;;;;;-0.13;100.00;101100.44;4175429;28;20379;-68
2022/01/25 05:57:06;;;;;;;200.13;40.57;;;;;;;-0.15;100.00;101091.78;4162284;28;23917;-66
2022/01/25 05:59:33;;;;;;;218.10;40.33;;;;;;;-0.20;100.00;101093.72;4169109;28;20442;-68
2022/01/25 06:02:00;;;;;;;207.77;40.20;;;;;;;-0.23;100.00;101094.72;4189765;28;23035;-67
2022/01/25 06:04:27;;;;;;;213.70;43.13;;;;;;;-0.20;100.00;101098.13;4209650;28;20706;-71
2022/01/25 06:06:56;;;;;;;193.93;41.53;;;;;;;-0.13;100.00;101095.19;4184448;28;20277;-71
2022/01/25 06:09:24;;;;;;;217.13;42.87;;;;;;;-0.07;100.00;101088.84;4198176;28;20242;-69
2022/01/25 06:11:52;;;;;;;219.73;41.70;;;;;;;-0.06;100.00;101085.34;4194875;28;21829;-69
2022/01/25 06:14:20;;;;;;;205.20;42.57;;;;;;;-0.04;100.00;101092.22;4211834;28;20243;-70
2022/01/25 06:16:47;;;;;;;208.97;40.20;;;;;;;-0.07;100.00;101094.97;4209316;28;20229;-68
2022/01/25 06:19:13;;;;;;;205.53;44.00;;;;;;;-0.09;100.00;101085.47;4179937;28;20237;-69
2022/01/25 06:21:40;;;;;;;202.83;39.83;;;;;;;-0.11;100.00;101085.53;4181141;28;20243;-67
2022/01/25 06:24:07;;;;;;;201.87;40.70;;;;;;;-0.15;100.00;101083.94;4168680;28;20267;-66
2022/01/25 06:26:33;;;;;;;169.17;37.87;;;;;;;-0.07;100.00;101084.50;4190144;28;20249;-65
2022/01/25 06:29:01;;;;;;;187.77;39.70;;;;;;;-0.02;100.00;101079.09;4176227;28;20240;-65
2022/01/25 06:31:29;;;;;;;205.93;40.47;;;;;;;-0.13;100.00;101079.50;4165281;28;24706;-67
2022/01/25 06:33:57;;;;;;;179.07;39.07;;;;;;;-0.01;100.00;101073.78;4192093;28;20370;-67
2022/01/25 06:36:24;;;;;;;215.30;40.50;;;;;;;-0.06;100.00;101070.50;4180315;28;20238;-69
2022/01/25 06:38:50;;;;;;;183.73;37.37;;;;;;;-0.07;100.00;101071.41;4173402;28;20237;-67
2022/01/25 06:41:18;;;;;;;195.57;39.27;;;;;;;-0.06;100.00;101067.03;4169348;28;20244;-68
2022/01/25 06:43:46;;;;;;;203.60;41.67;;;;;;;-0.19;100.00;101066.66;4183834;28;22906;-69
2022/01/25 06:46:13;;;;;;;198.20;40.60;;;;;;;-0.25;100.00;101061.69;4176998;28;20237;-67
2022/01/25 06:48:39;;;;;;;198.63;41.07;;;;;;;-0.20;100.00;101061.50;4200732;28;20330;-65
2022/01/25 06:51:06;;;;;;;200.33;40.47;;;;;;;-0.16;100.00;101048.25;4183257;28;20402;-68
2022/01/25 06:53:33;;;;;;;187.37;39.87;;;;;;;-0.13;100.00;101055.13;4182905;28;22457;-65
2022/01/25 06:56:01;;;;;;;209.90;43.27;;;;;;;-0.15;100.00;101049.09;4183324;28;21466;-64
2022/01/25 06:58:27;;;;;;;204.87;41.97;;;;;;;-0.08;100.00;101053.16;4169784;28;20241;-66
2022/01/25 07:00:54;;;;;;;198.87;42.07;;;;;;;-0.10;100.00;101055.81;4182845;28;20312;-66
2022/01/25 07:03:21;;;;;;;197.00;41.50;;;;;;;-0.03;100.00;101059.91;4162203;28;21456;-71
2022/01/25 07:05:48;;;;;;;191.50;41.87;;;;;;;-0.07;100.00;101058.34;4179903;28;20293;-70
2022/01/25 07:08:14;;;;;;;211.27;41.70;;;;;;;-0.07;100.00;101058.34;4192324;28;20280;-69
2022/01/25 07:10:41;;;;;;;191.87;41.03;;;;;;;-0.01;100.00;101058.06;4173452;28;20335;-64
2022/01/25 07:13:08;;;;;;;191.27;41.33;;;;;;;-0.06;100.00;101059.19;4186285;28;26184;-64
2022/01/25 07:15:35;;;;;;;196.93;40.93;;;;;;;-0.11;100.00;101056.75;4178516;28;22248;-64
2022/01/25 07:18:01;;;;;;;184.10;40.53;;;;;;;-0.01;100.00;101065.91;4181794;28;20237;-65
2022/01/25 07:20:29;;;;;;;196.20;43.93;;;;;;;-0.03;100.00;101070.34;4192482;28;22861;-65
2022/01/25 07:22:55;;;;;;;182.97;43.03;;;;;;;-0.09;100.00;101062.78;4169934;28;20268;-64
2022/01/25 07:25:22;;;;;;;184.67;39.57;;;;;;;-0.09;100.00;101059.31;4188926;28;21762;-64
2022/01/25 07:27:49;;;;;;;167.73;40.33;;;;;;;-0.09;100.00;101054.94;4190210;28;20221;-67
2022/01/25 07:30:15;;;;;;;159.07;38.40;;;;;;;-0.09;100.00;101054.09;4171939;28;20309;-66
2022/01/25 07:32:42;;;;;;;158.17;40.17;;;;;;;-0.06;100.00;101060.03;4171606;28;20218;-65
2022/01/25 07:35:13;;;;;;;167.97;40.80;;;;;;;0.02;100.00;101048.41;4168600;28;21276;-66
2022/01/25 07:37:55;;;;;;;153.23;39.03;;;;;;;0.08;100.00;101048.16;4181978;28;20241;-67
2022/01/25 07:40:24;;;;;;;150.30;39.00;;;;;;;-0.02;100.00;101045.06;4166478;28;20229;-64
2022/01/25 07:43:03;;;;;;;155.83;38.20;;;;;;;-0.07;100.00;101041.75;4173779;28;20284;-67
2022/01/25 07:45:36;;;;;;;134.33;37.20;;;;;;;-0.04;100.00;101058.22;4177343;28;20309;-64
2022/01/25 07:48:09;;;;;;;137.27;38.90;;;;;;;-0.02;100.00;101051.16;4166237;28;20238;-65
2022/01/25 07:50:36;;;;;;;157.40;38.30;;;;;;;-0.08;100.00;101051.38;4160661;28;20305;-65
2022/01/25 07:53:04;;;;;;;136.93;37.20;;;;;;;-0.02;100.00;101043.31;4179470;28;20406;-64
2022/01/25 07:55:31;;;;;;;141.20;38.13;;;;;;;0.06;100.00;101036.91;4171309;28;21253;-62
2022/01/25 07:57:58;;;;;;;128.30;35.67;;;;;;;-0.03;100.00;101033.72;4163205;28;20248;-63
2022/01/25 08:00:24;;;;;;;132.53;36.23;;;;;;;-0.03;100.00;101027.66;4173860;28;20237;-63
2022/01/25 08:02:51;;;;;;;136.67;36.63;;;;;;;-0.03;100.00;101036.34;4170471;28;20304;-65
2022/01/25 08:05:21;;;;;;;130.87;35.33;;;;;;;-0.06;100.00;101036.47;4196374;28;21244;-65
2022/01/25 08:07:49;;;;;;;119.70;36.30;;;;;;;0.01;100.00;101033.63;4179314;28;20674;-67
2022/01/25 08:10:19;;;;;;;125.57;35.83;;;;;;;0.06;100.00;101032.50;4191568;28;20244;-68
2022/01/25 08:12:51;;;;;;;122.57;37.30;;;;;;;0.01;100.00;101033.63;4190478;28;20352;-69
2022/01/25 08:15:28;;;;;;;117.77;35.93;;;;;;;0.09;100.00;101024.53;4178071;28;20319;-69
2022/01/25 08:17:57;;;;;;;122.37;35.37;;;;;;;0.08;100.00;101035.06;4178775;28;22603;-69
2022/01/25 08:20:31;;;;;;;119.20;33.97;;;;;;;0.04;100.00;101028.25;4160023;28;22417;-70
2022/01/25 08:22:58;;;;;;;112.57;35.70;;;;;;;0.14;100.00;101024.34;4197070;28;20328;-67
2022/01/25 08:25:27;;;;;;;127.40;35.10;;;;;;;0.09;100.00;101021.91;4167290;28;20332;-69
2022/01/25 08:27:56;;;;;;;118.93;35.53;;;;;;;0.06;100.00;101014.19;4180769;28;21068;-71
2022/01/25 08:30:24;;;;;;;116.63;36.23;;;;;;;0.05;100.00;101009.00;4172744;28;20242;-69
2022/01/25 08:32:51;;;;;;;118.53;34.93;;;;;;;0.10;100.00;101007.94;4179235;28;20233;-68
2022/01/25 08:35:31;;;;;;;117.33;35.03;;;;;;;0.07;100.00;101012.44;4177482;28;20230;-72
2022/01/25 08:37:57;;;;;;;100.50;33.20;;;;;;;0.07;100.00;101007.19;4164528;28;20232;-70
2022/01/25 08:40:39;;;;;;;117.33;36.47;;;;;;;0.11;100.00;101009.63;4183812;28;20257;-68
2022/01/25 08:43:19;;;;;;;122.10;37.40;;;;;;;0.15;100.00;101020.81;4177594;28;22145;-68
2022/01/25 08:45:54;;;;;;;129.20;39.60;;;;;;;0.05;100.00;101007.28;4195914;28;21023;-69
2022/01/25 08:48:20;;;;;;;133.07;39.57;;;;;;;0.18;100.00;101015.44;4166137;28;20700;-70
2022/01/25 08:50:50;;;;;;;116.77;36.87;;;;;;;0.16;100.00;100998.97;4177378;28;20246;-70
2022/01/25 08:53:20;;;;;;;122.80;35.67;;;;;;;0.09;100.00;100992.28;4180839;28;22606;-71
2022/01/25 08:55:52;;;;;;;111.23;35.57;;;;;;;0.05;100.00;100999.44;4187080;28;20225;-72
2022/01/25 08:58:23;;;;;;;120.93;35.00;;;;;;;0.08;100.00;100995.81;4163259;28;21041;-75
2022/01/25 09:00:50;;;;;;;120.50;35.30;;;;;;;0.05;100.00;100988.97;4179011;28;20245;-78
2022/01/25 09:03:17;;;;;;;115.03;35.70;;;;;;;0.11;100.00;100995.69;4157197;28;20591;-68
2022/01/25 09:05:44;;;;;;;116.33;33.37;;;;;;;0.12;100.00;100984.31;4176305;28;20234;-71
2022/01/25 09:08:18;;;;;;;114.27;35.30;;;;;;;0.19;100.00;100988.38;4173740;28;20266;-68
2022/01/25 09:10:45;;;;;;;107.77;35.97;;;;;;;0.20;100.00;100977.81;4177082;28;20357;-71
2022/01/25 09:13:12;;;;;;;111.10;36.30;;;;;;;0.19;100.00;100980.53;4157315;28;21885;-72
2022/01/25 09:15:38;;;;;;;115.47;36.83;;;;;;;0.27;100.00;100975.81;4162056;28;20249;-68
2022/01/25 09:18:05;;;;;;;122.63;36.83;;;;;;;0.20;100.00;100971.75;4170027;28;21589;-67
2022/01/25 09:20:32;;;;;;;110.93;36.33;;;;;;;0.19;100.00;100973.53;4177109;28;20357;-68
2022/01/25 09:22:58;;;;;;;95.70;34.27;;;;;;;0.28;100.00;100974.03;4180071;28;20233;-72
2022/01/25 09:25:28;;;;;;;104.27;35.23;;;;;;;0.37;100.00;100968.41;4166266;28;20288;-70
2022/01/25 09:27:56;;;;;;;115.57;37.30;;;;;;;0.29;100.00;100975.75;4169209;28;21992;-70
2022/01/25 09:30:23;;;;;;;101.53;35.13;;;;;;;0.34;100.00;100977.25;4152469;28;20233;-70
2022/01/25 09:32:49;;;;;;;97.57;33.50;;;;;;;0.40;100.00;100982.22;4167325;28;20293;-68
2022/01/25 09:35:17;;;;;;;95.10;32.97;;;;;;;0.45;100.00;100987.25;4180458;28;21081;-69
2022/01/25 09:37:47;;;;;;;102.93;33.40;;;;;;;0.46;100.00;100983.72;4188048;28;21794;-70
2022/01/25 09:40:14;;;;;;;93.13;31.53;;;;;;;0.45;100.00;100976.78;4172125;28;20607;-69
2022/01/25 09:42:41;;;;;;;86.60;30.80;;;;;;;0.45;100.00;100975.94;4184895;28;20237;-72
2022/01/25 09:45:09;;;;;;;88.10;33.23;;;;;;;0.46;100.00;100983.72;4171724;28;21228;-72
2022/01/25 09:47:39;;;;;;;98.80;33.03;;;;;;;0.46;100.00;100988.09;4179829;28;20313;-70
2022/01/25 09:50:06;;;;;;;90.03;32.20;;;;;;;0.52;100.00;100985.22;4165872;28;22683;-70
2022/01/25 09:52:33;;;;;;;81.63;29.33;;;;;;;0.47;100.00;100984.56;4176288;28;22950;-70
2022/01/25 09:55:01;;;;;;;79.37;29.07;;;;;;;0.56;100.00;100985.03;4171653;28;21505;-69
2022/01/25 09:57:28;;;;;;;84.07;30.23;;;;;;;0.57;100.00;100980.63;4178623;28;23374;-72
2022/01/25 09:59:56;;;;;;;79.50;28.57;;;;;;;0.53;100.00;100973.81;4195081;28;20420;-68
2022/01/25 10:03:45;;;;;;;81.83;28.53;;;;;;;0.63;100.00;100978.59;4185475;28;20300;-70
2022/01/25 10:05:43;;;;;;;82.43;29.23;;;;;;;0.59;100.00;100978.81;4173811;28;21617;-69
2022/01/25 10:08:12;;;;;;;78.03;28.03;;;;;;;0.60;100.00;100968.25;4170688;28;20251;-69
2022/01/25 10:10:48;;;;;;;68.40;27.10;;;;;;;0.50;100.00;100961.72;4175064;28;20273;-69
2022/01/25 10:13:20;;;;;;;70.07;27.07;;;;;;;0.48;100.00;100970.56;4173104;28;21987;-69
2022/01/25 10:15:52;;;;;;;70.13;26.00;;;;;;;0.48;100.00;100966.16;4175132;28;20294;-69
2022/01/25 10:18:21;;;;;;;74.33;27.37;;;;;;;0.47;100.00;100971.47;4158767;28;20245;-69
2022/01/25 10:20:49;;;;;;;74.77;27.60;;;;;;;0.48;100.00;100965.31;4206660;28;21831;-68
2022/01/25 10:23:22;;;;;;;76.83;29.13;;;;;;;0.44;100.00;100974.22;4164145;28;21756;-69
2022/01/25 10:25:50;;;;;;;73.30;27.47;;;;;;;0.46;100.00;100965.38;4166695;28;20365;-69
2022/01/25 10:28:23;;;;;;;81.13;28.00;;;;;;;0.51;100.00;100965.19;4176101;28;21258;-70
2022/01/25 10:30:53;;;;;;;73.27;27.27;;;;;;;0.48;100.00;100950.47;4159714;28;21907;-70
2022/01/25 10:33:26;;;;;;;69.57;26.87;;;;;;;0.48;100.00;100954.84;4172269;28;20233;-69
2022/01/25 10:35:53;;;;;;;65.87;27.13;;;;;;;0.55;100.00;100951.03;4172468;28;22782;-70
2022/01/25 10:38:23;;;;;;;69.40;28.07;;;;;;;0.51;100.00;100957.31;4190760;28;20225;-68
2022/01/25 10:40:56;;;;;;;69.53;27.20;;;;;;;0.65;100.00;100965.41;4170225;28;21629;-70
2022/01/25 10:43:26;;;;;;;63.33;26.30;;;;;;;0.63;100.00;100962.00;4182547;28;25524;-67
2022/01/25 10:46:24;;;;;;;63.00;26.13;;;;;;;0.56;100.00;100958.84;4185245;28;20428;-70
2022/01/25 10:48:58;;;;;;;65.13;26.00;;;;;;;0.57;100.00;100955.28;4177590;28;20276;-70
2022/01/25 10:51:30;;;;;;;68.43;26.20;;;;;;;0.56;100.00;100952.72;4179031;28;21645;-69
2022/01/25 10:53:58;;;;;;;68.37;25.50;;;;;;;0.59;100.00;100952.63;4165602;28;20321;-70
2022/01/25 10:56:25;;;;;;;64.23;26.67;;;;;;;0.62;100.00;100953.31;4165465;28;20289;-67
2022/01/25 10:59:00;;;;;;;61.93;26.17;;;;;;;0.65;100.00;100949.69;4186682;28;20311;-69
2022/01/25 11:01:35;;;;;;;62.30;24.57;;;;;;;0.69;100.00;100947.81;4158226;28;20237;-67
2022/01/25 11:04:12;;;;;;;71.93;27.23;;;;;;;0.76;100.00;100950.06;4190240;28;22190;-68
2022/01/25 11:06:40;;;;;;;68.90;26.40;;;;;;;0.81;100.00;100948.09;4169158;28;25607;-71
2022/01/25 11:09:10;;;;;;;63.53;26.17;;;;;;;0.69;100.00;100946.03;4210656;28;23717;-69
2022/01/25 11:11:44;;;;;;;61.47;26.60;;;;;;;0.67;100.00;100945.25;4173505;28;20250;-68
2022/01/25 11:16:59;;;;;;;60.17;24.43;;;;;;;0.76;100.00;100936.13;4199853;28;21416;-70
2022/01/25 11:19:27;;;;;;;58.60;24.87;;;;;;;0.83;100.00;100935.78;4186861;28;21359;-69
2022/01/25 11:21:55;;;;;;;65.20;26.43;;;;;;;0.88;100.00;100942.59;4200638;28;22634;-70
2022/01/25 11:24:24;;;;;;;63.57;26.20;;;;;;;0.84;100.00;100940.09;4162987;28;20283;-68
2022/01/25 11:26:52;;;;;;;63.87;26.70;;;;;;;0.88;100.00;100942.59;4178000;28;26074;-67
2022/01/25 11:29:19;;;;;;;64.50;25.83;;;;;;;1.04;100.00;100943.56;4171872;28;20498;-69
2022/01/25 11:31:53;;;;;;;60.90;25.60;;;;;;;1.13;100.00;100939.69;4183372;28;20239;-69
2022/01/25 11:34:23;;;;;;;55.37;24.23;;;;;;;1.22;100.00;100921.75;4192352;28;20261;-70
2022/01/25 11:37:02;;;;;;;45.50;21.00;;;;;;;1.41;100.00;100920.84;4186063;28;22568;-69
2022/01/25 11:39:30;;;;;;;41.80;20.40;;;;;;;1.56;100.00;100927.97;4162882;28;20246;-68
2022/01/25 11:42:09;;;;;;;44.43;21.97;;;;;;;1.65;100.00;100932.75;4181732;28;21722;-72
2022/01/25 11:44:51;;;;;;;43.13;20.43;;;;;;;1.72;100.00;100925.44;4183345;28;20237;-67
2022/01/25 11:47:20;;;;;;;34.53;18.70;;;;;;;1.73;100.00;100921.88;4174995;28;20269;-70
2022/01/25 11:49:55;;;;;;;43.47;23.63;;;;;;;1.74;100.00;100922.75;4176932;28;25160;-68
2022/01/25 11:52:24;;;;;;;37.30;20.17;;;;;;;1.63;100.00;100923.25;4168980;28;20230;-70
2022/01/25 11:55:11;;;;;;;31.40;17.63;;;;;;;1.60;100.00;100913.78;4163131;28;20233;-70
2022/01/25 11:57:46;;;;;;;29.30;16.17;;;;;;;1.64;100.00;100911.88;4192348;28;22320;-65
2022/01/25 12:00:13;;;;;;;29.17;16.00;;;;;;;1.73;100.00;100921.03;4165752;28;22841;-68
2022/01/25 12:02:45;;;;;;;28.13;15.33;;;;;;;1.58;100.00;100913.00;4193582;28;20244;-69
2022/01/25 12:05:15;;;;;;;25.73;13.90;;;;;;;1.71;100.00;100915.88;4150034;28;20355;-68
2022/01/25 12:08:05;;;;;;;27.20;15.03;;;;;;;1.78;100.00;100921.66;4175608;28;20230;-67
2022/01/25 12:10:43;;;;;;;25.33;13.57;;;;;;;1.82;100.00;100915.31;4159020;28;20309;-68
2022/01/25 12:13:13;;;;;;;24.73;12.60;;;;;;;1.81;100.00;100921.50;4170924;28;20236;-69
2022/01/25 12:15:40;;;;;;;22.97;11.80;;;;;;;1.79;100.00;100918.13;4175892;28;20244;-69
2022/01/25 12:18:51;;;;;;;25.13;13.63;;;;;;;1.73;100.00;100919.25;4165278;28;20305;-68
2022/01/25 12:21:46;;;;;;;25.70;13.47;;;;;;;1.74;100.00;100920.13;4195376;28;20305;-67
2022/01/25 12:24:30;;;;;;;27.97;12.83;;;;;;;1.85;100.00;100912.53;4191699;28;21819;-69
2022/01/25 12:27:19;;;;;;;24.80;13.13;;;;;;;1.86;100.00;100909.00;4189232;28;20331;-68
2022/01/25 12:30:13;;;;;;;23.10;11.47;;;;;;;1.82;100.00;100902.22;4179260;28;20309;-67
2022/01/25 12:32:55;;;;;;;27.80;12.70;;;;;;;1.74;100.00;100904.38;4166427;28;21295;-68
2022/01/25 12:35:43;;;;;;;25.43;12.87;;;;;;;1.76;100.00;100894.66;4178784;28;20525;-69
2022/01/25 12:38:21;;;;;;;23.30;11.10;;;;;;;1.81;100.00;100896.13;4195796;28;20973;-66
2022/01/25 12:40:57;;;;;;;24.30;11.53;;;;;;;1.77;100.00;100888.47;4182621;28;22663;-69
2022/01/25 12:43:34;;;;;;;25.50;12.10;;;;;;;1.76;100.00;100889.41;4169669;28;20319;-71
2022/01/25 12:46:24;;;;;;;29.43;14.30;;;;;;;1.68;100.00;100887.16;4177487;28;20427;-66
2022/01/25 12:48:55;;;;;;;21.87;11.60;;;;;;;1.73;100.00;100889.56;4190892;28;21076;-69
2022/01/25 12:51:26;;;;;;;27.30;13.80;;;;;;;1.66;100.00;100895.13;4183302;28;20339;-68
2022/01/25 12:53:55;;;;;;;27.03;13.30;;;;;;;1.64;100.00;100885.63;4173037;28;20254;-71
2022/01/25 12:56:30;;;;;;;23.60;13.03;;;;;;;1.76;100.00;100878.91;4177311;28;22533;-67
2022/01/25 12:58:59;;;;;;;20.13;11.73;;;;;;;1.73;100.00;100884.31;4194865;28;20248;-66
2022/01/25 13:01:27;;;;;;;22.97;11.33;;;;;;;1.77;100.00;100893.72;4172301;28;20236;-67
2022/01/25 13:03:57;;;;;;;18.73;10.67;;;;;;;1.75;100.00;100893.78;4205661;28;20415;-69
2022/01/25 13:06:29;;;;;;;20.87;11.87;;;;;;;1.81;100.00;100879.53;4175294;28;20342;-71
2022/01/25 13:09:05;;;;;;;25.83;12.23;;;;;;;1.79;100.00;100873.50;4189955;28;20236;-70